Terminal Aerodrome Forecast
Issued by NWS Denver/Boulder, CO

Home | Current Version | Previous Version | Text Only | Print | Product List | Glossary On
Versions: 1 2 3 4 5 6 7 8 9 10 11 12 13 14 15 16 17 18 19 20 21 22 23 24 25 26 27 28 29 30 31 32 33 34 35 36 37 38 39 40 41 42 43 44 45 46 47 48 49 50
000
FTUS45 KBOU 132135 AAC
TAFDEN
TAF AMD
KDEN 132135Z 1322/1424 13010KT P6SM SCT060 BKN200
     FM132300 03010G18KT P6SM SCT060 BKN150
      TEMPO 1323/1402 VRB20G35KT TSRA BKN050CB
     FM140300 14009KT P6SM SCT060 BKN120
     FM140600 23007KT P6SM FEW060
     FM141600 VRB05KT P6SM SCT070
     FM141900 08006KT P6SM SCT070 BKN140 PROB30 1421/1424 VRB15G30KT
      -TSRA BKN070CB=

USA.gov is the U.S. government's official web portal to all federal, state and local government web resources and services.